sensor_id;sensor_type;location;lat;lon;timestamp;pressure;altitude;pressure_sealevel;temperature;humidity
11440;BME280;5776;51.814;4.510;2022-12-18T00:01:33;102822.16;;;2.36;97.98
11440;BME280;5776;51.814;4.510;2022-12-18T00:04:00;102815.09;;;2.35;98.32
11440;BME280;5776;51.814;4.510;2022-12-18T00:06:28;102806.44;;;2.33;97.79
11440;BME280;5776;51.814;4.510;2022-12-18T00:08:55;102803.75;;;2.33;98.45
11440;BME280;5776;51.814;4.510;2022-12-18T00:11:24;102796.72;;;2.32;98.13
11440;BME280;5776;51.814;4.510;2022-12-18T00:13:50;102794.69;;;2.34;97.91
11440;BME280;5776;51.814;4.510;2022-12-18T00:16:19;102799.38;;;2.32;98.23
11440;BME280;5776;51.814;4.510;2022-12-18T00:18:50;102785.31;;;2.30;98.00
11440;BME280;5776;51.814;4.510;2022-12-18T00:21:18;102787.38;;;2.28;98.27
11440;BME280;5776;51.814;4.510;2022-12-18T00:23:45;102795.44;;;2.28;98.80
11440;BME280;5776;51.814;4.510;2022-12-18T00:26:17;102798.13;;;2.28;98.62
11440;BME280;5776;51.814;4.510;2022-12-18T00:28:44;102801.41;;;2.30;98.08
11440;BME280;5776;51.814;4.510;2022-12-18T00:31:13;102800.97;;;2.27;98.35
11440;BME280;5776;51.814;4.510;2022-12-18T00:33:40;102792.09;;;2.26;98.33
11440;BME280;5776;51.814;4.510;2022-12-18T00:36:11;102796.63;;;2.26;98.23
11440;BME280;5776;51.814;4.510;2022-12-18T00:38:37;102791.63;;;2.23;98.29
11440;BME280;5776;51.814;4.510;2022-12-18T00:41:04;102798.47;;;2.25;98.56
11440;BME280;5776;51.814;4.510;2022-12-18T00:43:30;102797.63;;;2.25;98.42
11440;BME280;5776;51.814;4.510;2022-12-18T00:45:59;102801.50;;;2.22;98.26
11440;BME280;5776;51.814;4.510;2022-12-18T00:48:25;102795.13;;;2.23;98.63
11440;BME280;5776;51.814;4.510;2022-12-18T00:50:51;102798.19;;;2.20;98.17
11440;BME280;5776;51.814;4.510;2022-12-18T00:53:17;102790.13;;;2.20;98.46
11440;BME280;5776;51.814;4.510;2022-12-18T00:55:45;102798.19;;;2.20;98.03
11440;BME280;5776;51.814;4.510;2022-12-18T00:58:13;102802.72;;;2.20;98.49
11440;BME280;5776;51.814;4.510;2022-12-18T01:00:39;102801.88;;;2.19;98.55
11440;BME280;5776;51.814;4.510;2022-12-18T01:03:05;102801.25;;;2.17;97.93
11440;BME280;5776;51.814;4.510;2022-12-18T01:05:31;102804.75;;;2.17;97.92
11440;BME280;5776;51.814;4.510;2022-12-18T01:07:58;102800.03;;;2.20;98.58
11440;BME280;5776;51.814;4.510;2022-12-18T01:10:25;102800.88;;;2.20;98.17
11440;BME280;5776;51.814;4.510;2022-12-18T01:12:51;102796.31;;;2.21;97.80
11440;BME280;5776;51.814;4.510;2022-12-18T01:15:17;102801.88;;;2.19;97.96
11440;BME280;5776;51.814;4.510;2022-12-18T01:17:43;102804.56;;;2.19;97.62
11440;BME280;5776;51.814;4.510;2022-12-18T01:20:11;102802.25;;;2.16;97.93
11440;BME280;5776;51.814;4.510;2022-12-18T01:22:37;102803.25;;;2.15;97.70
11440;BME280;5776;51.814;4.510;2022-12-18T01:25:03;102802.44;;;2.14;98.09
11440;BME280;5776;51.814;4.510;2022-12-18T01:27:30;102800.56;;;2.15;98.08
11440;BME280;5776;51.814;4.510;2022-12-18T01:29:56;102799.94;;;2.13;98.25
11440;BME280;5776;51.814;4.510;2022-12-18T01:32:21;102803.63;;;2.12;97.99
11440;BME280;5776;51.814;4.510;2022-12-18T01:34:47;102804.66;;;2.11;98.05
11440;BME280;5776;51.814;4.510;2022-12-18T01:37:13;102800.94;;;2.12;97.82
11440;BME280;5776;51.814;4.510;2022-12-18T01:39:39;102798.28;;;2.12;98.10
11440;BME280;5776;51.814;4.510;2022-12-18T01:42:13;102795.31;;;2.07;98.23
11440;BME280;5776;51.814;4.510;2022-12-18T01:47:23;102806.84;;;2.07;97.71
11440;BME280;5776;51.814;4.510;2022-12-18T01:49:50;102813.91;;;2.08;98.21
11440;BME280;5776;51.814;4.510;2022-12-18T01:52:17;102810.56;;;2.06;98.14
11440;BME280;5776;51.814;4.510;2022-12-18T01:54:45;102824.16;;;2.05;97.73
11440;BME280;5776;51.814;4.510;2022-12-18T01:57:12;102824.16;;;2.05;97.78
11440;BME280;5776;51.814;4.510;2022-12-18T01:59:39;102825.16;;;2.04;97.81
11440;BME280;5776;51.814;4.510;2022-12-18T02:02:07;102821.84;;;2.02;97.76
11440;BME280;5776;51.814;4.510;2022-12-18T02:04:34;102825.34;;;2.02;97.84
11440;BME280;5776;51.814;4.510;2022-12-18T02:10:07;102814.81;;;2.01;97.74
11440;BME280;5776;51.814;4.510;2022-12-18T02:12:47;102818.50;;;2.00;98.00
11440;BME280;5776;51.814;4.510;2022-12-18T02:18:14;102814.16;;;1.99;97.56
11440;BME280;5776;51.814;4.510;2022-12-18T02:23:51;102814.50;;;1.95;98.09
11440;BME280;5776;51.814;4.510;2022-12-18T02:26:31;102814.50;;;1.95;98.15
11440;BME280;5776;51.814;4.510;2022-12-18T02:29:10;102806.66;;;1.94;97.72
11440;BME280;5776;51.814;4.510;2022-12-18T02:31:53;102806.84;;;1.92;97.38
11440;BME280;5776;51.814;4.510;2022-12-18T02:34:25;102805.84;;;1.93;97.53
11440;BME280;5776;51.814;4.510;2022-12-18T02:36:54;102808.69;;;1.92;97.46
11440;BME280;5776;51.814;4.510;2022-12-18T02:39:21;102807.03;;;1.91;97.50
11440;BME280;5776;51.814;4.510;2022-12-18T02:41:49;102809.88;;;1.89;97.44
11440;BME280;5776;51.814;4.510;2022-12-18T02:44:16;102809.22;;;1.87;97.34
11440;BME280;5776;51.814;4.510;2022-12-18T02:46:46;102801.03;;;1.89;97.26
11440;BME280;5776;51.814;4.510;2022-12-18T02:51:50;102790.84;;;1.84;96.83
11440;BME280;5776;51.814;4.510;2022-12-18T02:56:53;102783.63;;;1.85;96.99
11440;BME280;5776;51.814;4.510;2022-12-18T02:59:28;102786.50;;;1.83;97.48
11440;BME280;5776;51.814;4.510;2022-12-18T03:04:52;102764.41;;;1.81;96.76
11440;BME280;5776;51.814;4.510;2022-12-18T03:07:26;102767.28;;;1.80;97.14
11440;BME280;5776;51.814;4.510;2022-12-18T03:09:54;102764.78;;;1.78;97.26
11440;BME280;5776;51.814;4.510;2022-12-18T03:12:32;102756.75;;;1.78;96.95
11440;BME280;5776;51.814;4.510;2022-12-18T03:17:44;102755.28;;;1.76;97.47
11440;BME280;5776;51.814;4.510;2022-12-18T03:20:15;102751.56;;;1.77;97.13
11440;BME280;5776;51.814;4.510;2022-12-18T03:22:44;102749.06;;;1.75;96.97
11440;BME280;5776;51.814;4.510;2022-12-18T03:25:14;102746.56;;;1.73;96.97
11440;BME280;5776;51.814;4.510;2022-12-18T03:27:47;102737.06;;;1.71;96.73
11440;BME280;5776;51.814;4.510;2022-12-18T03:30:15;102730.03;;;1.70;97.17
11440;BME280;5776;51.814;4.510;2022-12-18T03:32:50;102729.84;;;1.71;97.20
11440;BME280;5776;51.814;4.510;2022-12-18T03:35:22;102732.69;;;1.70;96.55
11440;BME280;5776;51.814;4.510;2022-12-18T03:37:51;102737.22;;;1.69;96.91
11440;BME280;5776;51.814;4.510;2022-12-18T03:40:20;102735.59;;;1.68;97.03
11440;BME280;5776;51.814;4.510;2022-12-18T03:42:52;102744.44;;;1.69;96.29
11440;BME280;5776;51.814;4.510;2022-12-18T03:50:55;102738.81;;;1.64;96.36
11440;BME280;5776;51.814;4.510;2022-12-18T03:53:52;102745.16;;;1.63;96.81
11440;BME280;5776;51.814;4.510;2022-12-18T03:56:22;102746.19;;;1.62;96.88
11440;BME280;5776;51.814;4.510;2022-12-18T03:58:52;102748.03;;;1.61;96.68
11440;BME280;5776;51.814;4.510;2022-12-18T04:01:23;102746.34;;;1.60;96.64
11440;BME280;5776;51.814;4.510;2022-12-18T04:03:52;102742.19;;;1.58;96.48
11440;BME280;5776;51.814;4.510;2022-12-18T04:06:18;102736.81;;;1.58;96.46
11440;BME280;5776;51.814;4.510;2022-12-18T04:08:45;102743.38;;;1.55;96.60
11440;BME280;5776;51.814;4.510;2022-12-18T04:11:12;102745.91;;;1.57;96.84
11440;BME280;5776;51.814;4.510;2022-12-18T04:13:38;102746.91;;;1.56;96.43
11440;BME280;5776;51.814;4.510;2022-12-18T04:16:05;102747.09;;;1.54;96.86
11440;BME280;5776;51.814;4.510;2022-12-18T04:18:31;102744.41;;;1.54;96.43
11440;BME280;5776;51.814;4.510;2022-12-18T04:20:57;102747.25;;;1.52;96.19
11440;BME280;5776;51.814;4.510;2022-12-18T04:23:23;102743.94;;;1.50;96.21
11440;BME280;5776;51.814;4.510;2022-12-18T04:25:48;102736.75;;;1.51;96.50
11440;BME280;5776;51.814;4.510;2022-12-18T04:28:14;102742.28;;;1.49;96.42
11440;BME280;5776;51.814;4.510;2022-12-18T04:30:40;102750.31;;;1.49;96.51
11440;BME280;5776;51.814;4.510;2022-12-18T04:33:10;102742.28;;;1.49;96.18
11440;BME280;5776;51.814;4.510;2022-12-18T04:35:37;102736.25;;;1.47;96.45
11440;BME280;5776;51.814;4.510;2022-12-18T04:38:03;102737.94;;;1.48;96.38
11440;BME280;5776;51.814;4.510;2022-12-18T04:40:28;102741.81;;;1.46;96.35
11440;BME280;5776;51.814;4.510;2022-12-18T04:42:54;102747.16;;;1.46;96.55
11440;BME280;5776;51.814;4.510;2022-12-18T04:45:20;102741.97;;;1.44;96.19
11440;BME280;5776;51.814;4.510;2022-12-18T04:47:46;102748.16;;;1.45;95.80
11440;BME280;5776;51.814;4.510;2022-12-18T04:50:11;102739.13;;;1.46;96.32
11440;BME280;5776;51.814;4.510;2022-12-18T04:52:37;102740.31;;;1.43;96.24
11440;BME280;5776;51.814;4.510;2022-12-18T04:55:03;102741.53;;;1.41;95.98
11440;BME280;5776;51.814;4.510;2022-12-18T04:57:29;102742.34;;;1.41;96.30
11440;BME280;5776;51.814;4.510;2022-12-18T04:59:55;102732.47;;;1.42;96.03
11440;BME280;5776;51.814;4.510;2022-12-18T05:02:21;102734.47;;;1.40;95.99
11440;BME280;5776;51.814;4.510;2022-12-18T05:04:47;102739.66;;;1.41;96.21
11440;BME280;5776;51.814;4.510;2022-12-18T05:07:12;102744.38;;;1.39;95.82
11440;BME280;5776;51.814;4.510;2022-12-18T05:09:38;102741.53;;;1.41;96.12
11440;BME280;5776;51.814;4.510;2022-12-18T05:12:04;102739.66;;;1.41;95.54
11440;BME280;5776;51.814;4.510;2022-12-18T05:14:30;102745.69;;;1.43;95.48
11440;BME280;5776;51.814;4.510;2022-12-18T05:16:56;102747.88;;;1.40;96.21
11440;BME280;5776;51.814;4.510;2022-12-18T05:19:22;102734.47;;;1.40;96.07
11440;BME280;5776;51.814;4.510;2022-12-18T05:21:48;102726.44;;;1.40;96.12
11440;BME280;5776;51.814;4.510;2022-12-18T05:24:14;102741.69;;;1.39;95.93
11440;BME280;5776;51.814;4.510;2022-12-18T05:26:39;102737.34;;;1.38;95.98
11440;BME280;5776;51.814;4.510;2022-12-18T05:29:05;102734.69;;;1.38;95.81
11440;BME280;5776;51.814;4.510;2022-12-18T05:31:31;102728.31;;;1.39;96.01
11440;BME280;5776;51.814;4.510;2022-12-18T05:33:57;102727.09;;;1.42;95.74
11440;BME280;5776;51.814;4.510;2022-12-18T05:36:23;102730.97;;;1.39;95.50
11440;BME280;5776;51.814;4.510;2022-12-18T05:38:49;102726.66;;;1.38;95.40
11440;BME280;5776;51.814;4.510;2022-12-18T05:41:15;102724.97;;;1.37;95.71
11440;BME280;5776;51.814;4.510;2022-12-18T05:43:41;102724.78;;;1.39;95.89
11440;BME280;5776;51.814;4.510;2022-12-18T05:46:12;102730.97;;;1.39;95.37
11440;BME280;5776;51.814;4.510;2022-12-18T05:48:38;102730.16;;;1.39;95.49
11440;BME280;5776;51.814;4.510;2022-12-18T05:51:06;102723.31;;;1.36;95.46
11440;BME280;5776;51.814;4.510;2022-12-18T05:53:33;102724.13;;;1.37;94.93
11440;BME280;5776;51.814;4.510;2022-12-18T05:56:01;102727.63;;;1.37;95.55
11440;BME280;5776;51.814;4.510;2022-12-18T05:58:27;102721.63;;;1.35;95.36
11440;BME280;5776;51.814;4.510;2022-12-18T06:00:53;102723.31;;;1.36;95.37
11440;BME280;5776;51.814;4.510;2022-12-18T06:03:19;102723.31;;;1.36;95.21
11440;BME280;5776;51.814;4.510;2022-12-18T06:05:45;102720.16;;;1.33;95.83
11440;BME280;5776;51.814;4.510;2022-12-18T06:08:12;102719.97;;;1.34;95.24
11440;BME280;5776;51.814;4.510;2022-12-18T06:10:39;102715.28;;;1.36;95.36
11440;BME280;5776;51.814;4.510;2022-12-18T06:13:06;102714.78;;;1.33;95.72
11440;BME280;5776;51.814;4.510;2022-12-18T06:15:32;102698.94;;;1.31;95.25
11440;BME280;5776;51.814;4.510;2022-12-18T06:17:58;102688.88;;;1.33;95.43
11440;BME280;5776;51.814;4.510;2022-12-18T06:20:23;102689.50;;;1.35;95.63
11440;BME280;5776;51.814;4.510;2022-12-18T06:22:49;102692.75;;;1.31;94.57
11440;BME280;5776;51.814;4.510;2022-12-18T06:25:15;102687.41;;;1.31;95.47
11440;BME280;5776;51.814;4.510;2022-12-18T06:27:41;102692.75;;;1.31;95.29
11440;BME280;5776;51.814;4.510;2022-12-18T06:30:08;102702.59;;;1.30;95.43
11440;BME280;5776;51.814;4.510;2022-12-18T06:32:33;102699.91;;;1.30;95.59
11440;BME280;5776;51.814;4.510;2022-12-18T06:34:59;102694.78;;;1.28;95.38
11440;BME280;5776;51.814;4.510;2022-12-18T06:37:25;102694.41;;;1.32;96.22
11440;BME280;5776;51.814;4.510;2022-12-18T06:39:52;102699.88;;;1.38;95.99
11440;BME280;5776;51.814;4.510;2022-12-18T06:42:18;102697.00;;;1.40;95.60
11440;BME280;5776;51.814;4.510;2022-12-18T06:44:47;102697.00;;;1.40;95.38
11440;BME280;5776;51.814;4.510;2022-12-18T06:47:14;102680.47;;;1.36;95.56
11440;BME280;5776;51.814;4.510;2022-12-18T06:49:40;102685.84;;;1.36;95.64
11440;BME280;5776;51.814;4.510;2022-12-18T06:52:06;102673.44;;;1.35;95.78
11440;BME280;5776;51.814;4.510;2022-12-18T06:54:33;102670.59;;;1.37;95.59
11440;BME280;5776;51.814;4.510;2022-12-18T06:56:59;102654.34;;;1.38;94.98
11440;BME280;5776;51.814;4.510;2022-12-18T06:59:25;102640.59;;;1.41;95.77
11440;BME280;5776;51.814;4.510;2022-12-18T07:01:51;102639.50;;;1.36;95.58
11440;BME280;5776;51.814;4.510;2022-12-18T07:04:18;102640.47;;;1.35;95.81
11440;BME280;5776;51.814;4.510;2022-12-18T07:06:44;102646.88;;;1.34;95.81
11440;BME280;5776;51.814;4.510;2022-12-18T07:09:10;102643.38;;;1.33;96.11
11440;BME280;5776;51.814;4.510;2022-12-18T07:11:36;102638.63;;;1.35;95.80
11440;BME280;5776;51.814;4.510;2022-12-18T07:14:03;102625.63;;;1.32;95.80
11440;BME280;5776;51.814;4.510;2022-12-18T07:16:29;102619.28;;;1.33;95.87
11440;BME280;5776;51.814;4.510;2022-12-18T07:18:56;102610.38;;;1.33;95.46
11440;BME280;5776;51.814;4.510;2022-12-18T07:21:24;102591.19;;;1.29;95.88
11440;BME280;5776;51.814;4.510;2022-12-18T07:23:51;102585.66;;;1.31;95.94
11440;BME280;5776;51.814;4.510;2022-12-18T07:26:20;102581.97;;;1.32;95.90
11440;BME280;5776;51.814;4.510;2022-12-18T07:28:47;102590.00;;;1.32;95.77
11440;BME280;5776;51.814;4.510;2022-12-18T07:31:18;102580.31;;;1.31;95.77
11440;BME280;5776;51.814;4.510;2022-12-18T07:33:46;102574.09;;;1.30;95.52
11440;BME280;5776;51.814;4.510;2022-12-18T07:36:11;102580.31;;;1.31;95.69
11440;BME280;5776;51.814;4.510;2022-12-18T07:38:37;102586.66;;;1.29;95.28
11440;BME280;5776;51.814;4.510;2022-12-18T07:41:08;102593.31;;;1.34;95.57
11440;BME280;5776;51.814;4.510;2022-12-18T07:43:35;102589.16;;;1.31;95.90
11440;BME280;5776;51.814;4.510;2022-12-18T07:46:02;102590.38;;;1.28;95.55
11440;BME280;5776;51.814;4.510;2022-12-18T07:48:29;102590.00;;;1.32;95.72
11440;BME280;5776;51.814;4.510;2022-12-18T07:50:59;102586.66;;;1.29;95.59
11440;BME280;5776;51.814;4.510;2022-12-18T07:53:26;102582.13;;;1.30;95.57
11440;BME280;5776;51.814;4.510;2022-12-18T07:55:59;102579.44;;;1.30;95.41
11440;BME280;5776;51.814;4.510;2022-12-18T07:58:26;102586.84;;;1.28;95.67
11440;BME280;5776;51.814;4.510;2022-12-18T08:00:52;102591.84;;;1.31;95.78
11440;BME280;5776;51.814;4.510;2022-12-18T08:03:19;102591.00;;;1.31;95.49
11440;BME280;5776;51.814;4.510;2022-12-18T08:05:44;102590.53;;;1.27;95.65
11440;BME280;5776;51.814;4.510;2022-12-18T08:08:11;102585.19;;;1.27;95.63
11440;BME280;5776;51.814;4.510;2022-12-18T08:10:37;102589.16;;;1.31;95.48
11440;BME280;5776;51.814;4.510;2022-12-18T08:13:04;102586.84;;;1.28;95.52
11440;BME280;5776;51.814;4.510;2022-12-18T08:15:30;102583.53;;;1.26;95.48
11440;BME280;5776;51.814;4.510;2022-12-18T08:17:56;102579.66;;;1.28;95.44
11440;BME280;5776;51.814;4.510;2022-12-18T08:20:22;102571.63;;;1.28;95.73
11440;BME280;5776;51.814;4.510;2022-12-18T08:22:48;102570.97;;;1.26;95.51
11440;BME280;5776;51.814;4.510;2022-12-18T08:25:14;102563.75;;;1.27;95.64
11440;BME280;5776;51.814;4.510;2022-12-18T08:27:39;102561.09;;;1.27;95.84
11440;BME280;5776;51.814;4.510;2022-12-18T08:30:05;102574.31;;;1.28;95.44
11440;BME280;5776;51.814;4.510;2022-12-18T08:32:31;102582.13;;;1.30;95.62
11440;BME280;5776;51.814;4.510;2022-12-18T08:34:58;102591.19;;;1.29;95.10
11440;BME280;5776;51.814;4.510;2022-12-18T08:37:24;102597.56;;;1.28;95.44
11440;BME280;5776;51.814;4.510;2022-12-18T08:39:50;102587.75;;;1.35;95.88
11440;BME280;5776;51.814;4.510;2022-12-18T08:42:16;102588.25;;;1.39;96.16
11440;BME280;5776;51.814;4.510;2022-12-18T08:45:02;102589.06;;;1.39;96.62
11440;BME280;5776;51.814;4.510;2022-12-18T08:47:28;102585.56;;;1.39;96.48
11440;BME280;5776;51.814;4.510;2022-12-18T08:49:53;102601.63;;;1.39;96.46
11440;BME280;5776;51.814;4.510;2022-12-18T08:52:19;102611.31;;;1.40;95.74
11440;BME280;5776;51.814;4.510;2022-12-18T08:54:45;102615.84;;;1.39;95.74
11440;BME280;5776;51.814;4.510;2022-12-18T08:57:11;102624.25;;;1.36;95.89
11440;BME280;5776;51.814;4.510;2022-12-18T08:59:37;102637.63;;;1.36;95.73
11440;BME280;5776;51.814;4.510;2022-12-18T09:02:03;102634.59;;;1.39;95.38
11440;BME280;5776;51.814;4.510;2022-12-18T09:04:29;102630.25;;;1.38;95.30
11440;BME280;5776;51.814;4.510;2022-12-18T09:06:55;102624.03;;;1.38;95.44
11440;BME280;5776;51.814;4.510;2022-12-18T09:09:20;102605.97;;;1.40;95.10
11440;BME280;5776;51.814;4.510;2022-12-18T09:11:46;102588.69;;;1.42;95.12
11440;BME280;5776;51.814;4.510;2022-12-18T09:14:12;102583.25;;;1.36;95.76
11440;BME280;5776;51.814;4.510;2022-12-18T09:16:38;102572.56;;;1.36;95.79
11440;BME280;5776;51.814;4.510;2022-12-18T09:19:04;102567.81;;;1.38;95.80
11440;BME280;5776;51.814;4.510;2022-12-18T09:21:33;102557.09;;;1.38;95.69
11440;BME280;5776;51.814;4.510;2022-12-18T09:24:00;102565.13;;;1.38;95.71
11440;BME280;5776;51.814;4.510;2022-12-18T09:26:27;102555.47;;;1.37;95.79
11440;BME280;5776;51.814;4.510;2022-12-18T09:28:52;102556.28;;;1.37;95.37
11440;BME280;5776;51.814;4.510;2022-12-18T09:31:21;102555.63;;;1.35;95.77
11440;BME280;5776;51.814;4.510;2022-12-18T09:33:47;102574.66;;;1.40;95.74
11440;BME280;5776;51.814;4.510;2022-12-18T09:36:15;102576.06;;;1.36;95.34
11440;BME280;5776;51.814;4.510;2022-12-18T09:38:42;102566.81;;;1.39;95.96
11440;BME280;5776;51.814;4.510;2022-12-18T09:41:40;102573.38;;;1.36;95.92
11440;BME280;5776;51.814;4.510;2022-12-18T09:44:34;102586.56;;;1.38;95.71
11440;BME280;5776;51.814;4.510;2022-12-18T09:49:46;102589.44;;;1.36;95.64
11440;BME280;5776;51.814;4.510;2022-12-18T09:52:51;102573.00;;;1.39;95.65
11440;BME280;5776;51.814;4.510;2022-12-18T09:57:56;102570.50;;;1.38;95.86
11440;BME280;5776;51.814;4.510;2022-12-18T10:00:25;102568.69;;;1.38;95.66
11440;BME280;5776;51.814;4.510;2022-12-18T10:02:53;102571.97;;;1.40;95.97
11440;BME280;5776;51.814;4.510;2022-12-18T10:05:33;102561.25;;;1.40;95.69
11440;BME280;5776;51.814;4.510;2022-12-18T10:08:10;102561.75;;;1.44;95.89
11440;BME280;5776;51.814;4.510;2022-12-18T10:11:00;102563.59;;;1.43;95.97
11440;BME280;5776;51.814;4.510;2022-12-18T10:16:36;102534.75;;;1.45;95.35
11440;BME280;5776;51.814;4.510;2022-12-18T10:19:22;102523.22;;;1.45;95.90
11440;BME280;5776;51.814;4.510;2022-12-18T10:24:58;102504.69;;;1.43;95.84
11440;BME280;5776;51.814;4.510;2022-12-18T10:27:27;102515.03;;;1.46;95.85
11440;BME280;5776;51.814;4.510;2022-12-18T10:29:54;102511.31;;;1.47;96.59
11440;BME280;5776;51.814;4.510;2022-12-18T10:32:25;102499.78;;;1.47;96.65
11440;BME280;5776;51.814;4.510;2022-12-18T10:34:54;102509.66;;;1.46;96.31
11440;BME280;5776;51.814;4.510;2022-12-18T10:37:23;102509.66;;;1.46;96.07
11440;BME280;5776;51.814;4.510;2022-12-18T10:40:16;102500.81;;;1.46;96.38
11440;BME280;5776;51.814;4.510;2022-12-18T10:42:42;102499.94;;;1.45;96.59
11440;BME280;5776;51.814;4.510;2022-12-18T10:45:14;102499.78;;;1.47;96.48
11440;BME280;5776;51.814;4.510;2022-12-18T10:47:48;102502.63;;;1.45;96.55
11440;BME280;5776;51.814;4.510;2022-12-18T10:50:26;102508.84;;;1.46;96.48
11440;BME280;5776;51.814;4.510;2022-12-18T10:52:59;102515.28;;;1.51;96.04
11440;BME280;5776;51.814;4.510;2022-12-18T10:55:34;102515.13;;;1.53;96.73
11440;BME280;5776;51.814;4.510;2022-12-18T11:06:25;102497.38;;;1.52;96.49
11440;BME280;5776;51.814;4.510;2022-12-18T11:09:20;102489.53;;;1.50;96.54
11440;BME280;5776;51.814;4.510;2022-12-18T11:11:52;102491.63;;;1.55;96.41
11440;BME280;5776;51.814;4.510;2022-12-18T11:14:26;102502.00;;;1.58;96.44
11440;BME280;5776;51.814;4.510;2022-12-18T11:16:53;102500.97;;;1.59;95.88
11440;BME280;5776;51.814;4.510;2022-12-18T11:19:33;102495.59;;;1.59;96.08
11440;BME280;5776;51.814;4.510;2022-12-18T11:22:01;102490.91;;;1.61;96.03
11440;BME280;5776;51.814;4.510;2022-12-18T11:27:02;102486.75;;;1.59;96.74
11440;BME280;5776;51.814;4.510;2022-12-18T11:32:27;102483.50;;;1.63;96.76
11440;BME280;5776;51.814;4.510;2022-12-18T11:35:01;102483.56;;;1.70;97.03
11440;BME280;5776;51.814;4.510;2022-12-18T11:37:29;102480.16;;;1.76;97.82
11440;BME280;5776;51.814;4.510;2022-12-18T11:40:00;102477.00;;;1.72;97.79
11440;BME280;5776;51.814;4.510;2022-12-18T11:45:30;102453.44;;;1.68;97.42
11440;BME280;5776;51.814;4.510;2022-12-18T11:48:04;102449.56;;;1.70;97.12
11440;BME280;5776;51.814;4.510;2022-12-18T11:50:48;102432.66;;;1.70;96.90
11440;BME280;5776;51.814;4.510;2022-12-18T11:53:15;102422.78;;;1.70;97.33
11440;BME280;5776;51.814;4.510;2022-12-18T11:56:02;102417.25;;;1.72;97.21
11440;BME280;5776;51.814;4.510;2022-12-18T12:06:55;102398.88;;;1.69;96.79
11440;BME280;5776;51.814;4.510;2022-12-18T12:15:28;102395.56;;;1.67;97.47
11440;BME280;5776;51.814;4.510;2022-12-18T12:18:20;102388.91;;;1.63;97.11
11440;BME280;5776;51.814;4.510;2022-12-18T12:26:11;102389.16;;;1.68;97.58
11440;BME280;5776;51.814;4.510;2022-12-18T12:37:03;102378.84;;;1.65;97.70
11440;BME280;5776;51.814;4.510;2022-12-18T12:39:35;102384.19;;;1.65;97.51
11440;BME280;5776;51.814;4.510;2022-12-18T12:42:05;102375.97;;;1.66;97.58
11440;BME280;5776;51.814;4.510;2022-12-18T12:44:57;102377.63;;;1.67;97.64
11440;BME280;5776;51.814;4.510;2022-12-18T12:47:33;102374.53;;;1.64;97.45
11440;BME280;5776;51.814;4.510;2022-12-18T12:50:03;102369.81;;;1.66;97.53
11440;BME280;5776;51.814;4.510;2022-12-18T12:52:39;102364.44;;;1.66;97.29
11440;BME280;5776;51.814;4.510;2022-12-18T12:55:14;102359.69;;;1.68;97.06
11440;BME280;5776;51.814;4.510;2022-12-18T12:57:47;102353.72;;;1.66;97.95
11440;BME280;5776;51.814;4.510;2022-12-18T13:00:17;102355.38;;;1.67;97.12
11440;BME280;5776;51.814;4.510;2022-12-18T13:07:51;102340.94;;;1.68;97.13
11440;BME280;5776;51.814;4.510;2022-12-18T13:12:57;102338.41;;;1.81;97.49
11440;BME280;5776;51.814;4.510;2022-12-18T13:25:54;102318.19;;;1.79;98.26
11440;BME280;5776;51.814;4.510;2022-12-18T13:30:55;102300.44;;;1.78;97.83
11440;BME280;5776;51.814;4.510;2022-12-18T13:36:43;102299.84;;;1.76;97.60
11440;BME280;5776;51.814;4.510;2022-12-18T13:39:50;102289.72;;;1.78;97.40
11440;BME280;5776;51.814;4.510;2022-12-18T13:44:36;102286.22;;;1.77;97.18
11440;BME280;5776;51.814;4.510;2022-12-18T13:47:04;102289.94;;;1.76;97.41
11440;BME280;5776;51.814;4.510;2022-12-18T13:49:41;102291.81;;;1.76;97.66
11440;BME280;5776;51.814;4.510;2022-12-18T13:52:26;102287.91;;;1.78;97.31
11440;BME280;5776;51.814;4.510;2022-12-18T13:54:56;102286.22;;;1.77;97.36
11440;BME280;5776;51.814;4.510;2022-12-18T13:57:34;102279.22;;;1.76;97.72
11440;BME280;5776;51.814;4.510;2022-12-18T14:02:50;102271.38;;;1.75;97.51
11440;BME280;5776;51.814;4.510;2022-12-18T14:05:33;102271.38;;;1.75;97.11
11440;BME280;5776;51.814;4.510;2022-12-18T14:08:05;102268.88;;;1.73;97.31
11440;BME280;5776;51.814;4.510;2022-12-18T14:10:31;102272.19;;;1.75;97.36
11440;BME280;5776;51.814;4.510;2022-12-18T14:13:06;102271.19;;;1.76;97.03
11440;BME280;5776;51.814;4.510;2022-12-18T14:18:01;102270.16;;;1.77;97.30
11440;BME280;5776;51.814;4.510;2022-12-18T14:20:31;102249.13;;;1.74;97.11
11440;BME280;5776;51.814;4.510;2022-12-18T14:22:57;102239.22;;;1.75;97.33
11440;BME280;5776;51.814;4.510;2022-12-18T14:25:25;102240.69;;;1.77;97.31
11440;BME280;5776;51.814;4.510;2022-12-18T14:30:43;102227.09;;;1.79;97.15
11440;BME280;5776;51.814;4.510;2022-12-18T14:33:18;102221.94;;;1.77;96.86
11440;BME280;5776;51.814;4.510;2022-12-18T14:36:02;102218.63;;;1.75;97.04
11440;BME280;5776;51.814;4.510;2022-12-18T14:38:39;102212.25;;;1.76;96.88
11440;BME280;5776;51.814;4.510;2022-12-18T14:43:35;102207.09;;;1.75;96.99
11440;BME280;5776;51.814;4.510;2022-12-18T14:46:03;102205.03;;;1.77;97.13
11440;BME280;5776;51.814;4.510;2022-12-18T14:48:41;102202.19;;;1.78;97.10
11440;BME280;5776;51.814;4.510;2022-12-18T14:54:14;102197.19;;;1.75;97.23
11440;BME280;5776;51.814;4.510;2022-12-18T14:56:46;102194.97;;;1.79;96.93
11440;BME280;5776;51.814;4.510;2022-12-18T14:59:15;102194.16;;;1.78;96.44
11440;BME280;5776;51.814;4.510;2022-12-18T15:07:03;102196.19;;;1.76;97.05
11440;BME280;5776;51.814;4.510;2022-12-18T15:09:29;102192.06;;;1.80;96.83
11440;BME280;5776;51.814;4.510;2022-12-18T15:11:58;102200.75;;;1.82;96.59
11440;BME280;5776;51.814;4.510;2022-12-18T15:14:41;102192.28;;;1.79;96.77
11440;BME280;5776;51.814;4.510;2022-12-18T15:17:23;102189.38;;;1.80;97.04
11440;BME280;5776;51.814;4.510;2022-12-18T15:19:52;102190.03;;;1.82;96.69
11440;BME280;5776;51.814;4.510;2022-12-18T15:22:24;102189.22;;;1.82;96.70
11440;BME280;5776;51.814;4.510;2022-12-18T15:24:50;102187.56;;;1.81;96.58
11440;BME280;5776;51.814;4.510;2022-12-18T15:27:27;102191.47;;;1.78;96.94
11440;BME280;5776;51.814;4.510;2022-12-18T15:30:22;102188.78;;;1.78;96.85
11440;BME280;5776;51.814;4.510;2022-12-18T15:32:47;102192.06;;;1.80;96.58